Cushendall, United Kingdom
Current Conditions -  °F | °C
As of 1:20 PM on Sunday 21 Dec 2014 (Local Time) from EGAA Reporting Station
Light Rain Light Rain  
Wind Chill: 52°   Ceiling: 1100
Heat Index: 52°   Visibility: 5mi
Dew Point: 50°   Wind: 20mph
Humidity: 94%   Direction: 230°SW
Pressure: 29.91"   Gusts: NA
Location:  55.08°N, 6.06°W
Report Text: EGAA 211320Z 23017KT 8000 -RA BKN011 BKN015 11/10 Q1013
Loading
Personal Weather Stations






























Interactive Weather Map New forecast layout! Learn more

10-Day Weather Forecast

Advertisements
Track Severe Weather on mobile